sensor_id;sensor_type;location;lat;lon;timestamp;P1;durP1;ratioP1;P2;durP2;ratioP2
9643;SDS011;4860;50.900;4.720;2023-04-06T00:01:44;0.60;;;0.60;;
9643;SDS011;4860;50.900;4.720;2023-04-06T00:04:11;0.60;;;0.60;;
9643;SDS011;4860;50.900;4.720;2023-04-06T00:06:38;0.50;;;0.50;;
9643;SDS011;4860;50.900;4.720;2023-04-06T00:09:04;0.60;;;0.60;;
9643;SDS011;4860;50.900;4.720;2023-04-06T00:11:30;0.50;;;0.50;;
9643;SDS011;4860;50.900;4.720;2023-04-06T00:13:56;0.50;;;0.50;;
9643;SDS011;4860;50.900;4.720;2023-04-06T00:16:23;0.60;;;0.60;;
9643;SDS011;4860;50.900;4.720;2023-04-06T00:18:49;0.50;;;0.50;;
9643;SDS011;4860;50.900;4.720;2023-04-06T00:21:15;0.50;;;0.50;;
9643;SDS011;4860;50.900;4.720;2023-04-06T00:23:41;0.50;;;0.50;;
9643;SDS011;4860;50.900;4.720;2023-04-06T00:26:08;0.60;;;0.60;;
9643;SDS011;4860;50.900;4.720;2023-04-06T00:28:36;0.50;;;0.50;;
9643;SDS011;4860;50.900;4.720;2023-04-06T00:31:02;0.50;;;0.50;;
9643;SDS011;4860;50.900;4.720;2023-04-06T00:33:28;0.40;;;0.40;;
9643;SDS011;4860;50.900;4.720;2023-04-06T00:35:55;0.50;;;0.50;;
9643;SDS011;4860;50.900;4.720;2023-04-06T00:38:21;0.50;;;0.50;;
9643;SDS011;4860;50.900;4.720;2023-04-06T00:40:48;0.50;;;0.50;;
9643;SDS011;4860;50.900;4.720;2023-04-06T00:43:14;0.50;;;0.50;;
9643;SDS011;4860;50.900;4.720;2023-04-06T00:45:41;0.50;;;0.50;;
9643;SDS011;4860;50.900;4.720;2023-04-06T00:48:07;0.60;;;0.60;;
9643;SDS011;4860;50.900;4.720;2023-04-06T00:50:34;0.50;;;0.50;;
9643;SDS011;4860;50.900;4.720;2023-04-06T00:53:00;0.50;;;0.50;;
9643;SDS011;4860;50.900;4.720;2023-04-06T00:55:27;0.40;;;0.40;;
9643;SDS011;4860;50.900;4.720;2023-04-06T00:57:53;0.50;;;0.50;;
9643;SDS011;4860;50.900;4.720;2023-04-06T01:00:20;0.50;;;0.50;;
9643;SDS011;4860;50.900;4.720;2023-04-06T01:02:46;0.40;;;0.40;;
9643;SDS011;4860;50.900;4.720;2023-04-06T01:05:13;0.50;;;0.50;;
9643;SDS011;4860;50.900;4.720;2023-04-06T01:07:39;0.43;;;0.43;;
9643;SDS011;4860;50.900;4.720;2023-04-06T01:10:05;0.50;;;0.50;;
9643;SDS011;4860;50.900;4.720;2023-04-06T01:12:32;0.60;;;0.60;;
9643;SDS011;4860;50.900;4.720;2023-04-06T01:14:58;0.60;;;0.60;;
9643;SDS011;4860;50.900;4.720;2023-04-06T01:17:25;0.40;;;0.40;;
9643;SDS011;4860;50.900;4.720;2023-04-06T01:19:52;0.50;;;0.50;;
9643;SDS011;4860;50.900;4.720;2023-04-06T01:22:19;0.50;;;0.50;;
9643;SDS011;4860;50.900;4.720;2023-04-06T01:24:45;0.60;;;0.60;;
9643;SDS011;4860;50.900;4.720;2023-04-06T01:27:12;0.50;;;0.50;;
9643;SDS011;4860;50.900;4.720;2023-04-06T01:29:38;0.50;;;0.50;;
9643;SDS011;4860;50.900;4.720;2023-04-06T01:32:06;0.40;;;0.40;;
9643;SDS011;4860;50.900;4.720;2023-04-06T01:34:32;0.50;;;0.50;;
9643;SDS011;4860;50.900;4.720;2023-04-06T01:36:58;0.40;;;0.40;;
9643;SDS011;4860;50.900;4.720;2023-04-06T01:39:25;0.50;;;0.50;;
9643;SDS011;4860;50.900;4.720;2023-04-06T01:41:51;0.40;;;0.40;;
9643;SDS011;4860;50.900;4.720;2023-04-06T01:44:18;0.50;;;0.50;;
9643;SDS011;4860;50.900;4.720;2023-04-06T01:46:45;0.40;;;0.40;;
9643;SDS011;4860;50.900;4.720;2023-04-06T01:49:11;0.50;;;0.50;;
9643;SDS011;4860;50.900;4.720;2023-04-06T01:51:37;0.50;;;0.50;;
9643;SDS011;4860;50.900;4.720;2023-04-06T01:54:04;0.40;;;0.40;;
9643;SDS011;4860;50.900;4.720;2023-04-06T01:56:30;0.40;;;0.40;;
9643;SDS011;4860;50.900;4.720;2023-04-06T01:58:56;0.50;;;0.50;;
9643;SDS011;4860;50.900;4.720;2023-04-06T02:01:23;0.50;;;0.50;;
9643;SDS011;4860;50.900;4.720;2023-04-06T02:03:49;0.50;;;0.50;;
9643;SDS011;4860;50.900;4.720;2023-04-06T02:06:15;0.50;;;0.50;;
9643;SDS011;4860;50.900;4.720;2023-04-06T02:08:41;0.53;;;0.53;;
9643;SDS011;4860;50.900;4.720;2023-04-06T02:11:08;0.50;;;0.50;;
9643;SDS011;4860;50.900;4.720;2023-04-06T02:13:34;0.50;;;0.50;;
9643;SDS011;4860;50.900;4.720;2023-04-06T02:16:00;0.40;;;0.40;;
9643;SDS011;4860;50.900;4.720;2023-04-06T02:18:28;0.50;;;0.50;;
9643;SDS011;4860;50.900;4.720;2023-04-06T02:20:54;0.50;;;0.50;;
9643;SDS011;4860;50.900;4.720;2023-04-06T02:23:20;0.50;;;0.50;;
9643;SDS011;4860;50.900;4.720;2023-04-06T02:25:47;0.50;;;0.50;;
9643;SDS011;4860;50.900;4.720;2023-04-06T02:28:13;0.50;;;0.50;;
9643;SDS011;4860;50.900;4.720;2023-04-06T02:30:39;0.50;;;0.50;;
9643;SDS011;4860;50.900;4.720;2023-04-06T02:33:06;0.50;;;0.50;;
9643;SDS011;4860;50.900;4.720;2023-04-06T02:35:32;0.50;;;0.50;;
9643;SDS011;4860;50.900;4.720;2023-04-06T02:37:58;0.50;;;0.50;;
9643;SDS011;4860;50.900;4.720;2023-04-06T02:40:24;0.50;;;0.50;;
9643;SDS011;4860;50.900;4.720;2023-04-06T02:42:50;0.50;;;0.50;;
9643;SDS011;4860;50.900;4.720;2023-04-06T02:45:16;0.50;;;0.50;;
9643;SDS011;4860;50.900;4.720;2023-04-06T02:47:42;0.50;;;0.50;;
9643;SDS011;4860;50.900;4.720;2023-04-06T02:50:09;0.50;;;0.50;;
9643;SDS011;4860;50.900;4.720;2023-04-06T02:52:35;0.50;;;0.50;;
9643;SDS011;4860;50.900;4.720;2023-04-06T02:55:02;0.50;;;0.50;;
9643;SDS011;4860;50.900;4.720;2023-04-06T02:57:28;0.43;;;0.43;;
9643;SDS011;4860;50.900;4.720;2023-04-06T02:59:54;0.50;;;0.50;;
9643;SDS011;4860;50.900;4.720;2023-04-06T03:02:20;0.50;;;0.50;;
9643;SDS011;4860;50.900;4.720;2023-04-06T03:04:47;0.60;;;0.60;;
9643;SDS011;4860;50.900;4.720;2023-04-06T03:07:13;0.60;;;0.60;;
9643;SDS011;4860;50.900;4.720;2023-04-06T03:09:39;0.40;;;0.40;;
9643;SDS011;4860;50.900;4.720;2023-04-06T03:12:05;0.43;;;0.43;;
9643;SDS011;4860;50.900;4.720;2023-04-06T03:14:32;0.30;;;0.30;;
9643;SDS011;4860;50.900;4.720;2023-04-06T03:16:58;0.43;;;0.43;;
9643;SDS011;4860;50.900;4.720;2023-04-06T03:19:24;0.50;;;0.50;;
9643;SDS011;4860;50.900;4.720;2023-04-06T03:21:50;0.50;;;0.50;;
9643;SDS011;4860;50.900;4.720;2023-04-06T03:24:17;0.50;;;0.50;;
9643;SDS011;4860;50.900;4.720;2023-04-06T03:26:43;0.50;;;0.50;;
9643;SDS011;4860;50.900;4.720;2023-04-06T03:29:09;0.50;;;0.50;;
9643;SDS011;4860;50.900;4.720;2023-04-06T03:31:35;0.50;;;0.50;;
9643;SDS011;4860;50.900;4.720;2023-04-06T03:34:02;0.40;;;0.40;;
9643;SDS011;4860;50.900;4.720;2023-04-06T03:36:28;0.40;;;0.40;;
9643;SDS011;4860;50.900;4.720;2023-04-06T03:38:55;0.40;;;0.40;;
9643;SDS011;4860;50.900;4.720;2023-04-06T03:41:21;0.47;;;0.47;;
9643;SDS011;4860;50.900;4.720;2023-04-06T03:43:47;0.40;;;0.40;;
9643;SDS011;4860;50.900;4.720;2023-04-06T03:46:13;0.40;;;0.40;;
9643;SDS011;4860;50.900;4.720;2023-04-06T03:48:40;0.50;;;0.50;;
9643;SDS011;4860;50.900;4.720;2023-04-06T03:51:06;0.50;;;0.50;;
9643;SDS011;4860;50.900;4.720;2023-04-06T03:53:32;0.50;;;0.50;;
9643;SDS011;4860;50.900;4.720;2023-04-06T03:55:58;0.43;;;0.43;;
9643;SDS011;4860;50.900;4.720;2023-04-06T03:58:25;0.50;;;0.50;;
9643;SDS011;4860;50.900;4.720;2023-04-06T04:00:51;0.50;;;0.50;;
9643;SDS011;4860;50.900;4.720;2023-04-06T04:03:17;0.50;;;0.50;;
9643;SDS011;4860;50.900;4.720;2023-04-06T04:05:43;0.40;;;0.40;;
9643;SDS011;4860;50.900;4.720;2023-04-06T04:08:10;0.40;;;0.40;;
9643;SDS011;4860;50.900;4.720;2023-04-06T04:10:36;0.50;;;0.50;;
9643;SDS011;4860;50.900;4.720;2023-04-06T04:13:02;0.50;;;0.50;;
9643;SDS011;4860;50.900;4.720;2023-04-06T04:15:28;0.40;;;0.40;;
9643;SDS011;4860;50.900;4.720;2023-04-06T04:17:54;0.40;;;0.40;;
9643;SDS011;4860;50.900;4.720;2023-04-06T04:20:20;0.40;;;0.40;;
9643;SDS011;4860;50.900;4.720;2023-04-06T04:22:47;0.50;;;0.50;;
9643;SDS011;4860;50.900;4.720;2023-04-06T04:25:13;0.50;;;0.50;;
9643;SDS011;4860;50.900;4.720;2023-04-06T04:27:39;0.50;;;0.50;;
9643;SDS011;4860;50.900;4.720;2023-04-06T04:30:06;0.40;;;0.40;;
9643;SDS011;4860;50.900;4.720;2023-04-06T04:32:32;0.40;;;0.40;;
9643;SDS011;4860;50.900;4.720;2023-04-06T04:34:58;0.40;;;0.40;;
9643;SDS011;4860;50.900;4.720;2023-04-06T04:37:24;0.40;;;0.40;;
9643;SDS011;4860;50.900;4.720;2023-04-06T04:39:51;0.40;;;0.40;;
9643;SDS011;4860;50.900;4.720;2023-04-06T04:42:17;0.50;;;0.50;;
9643;SDS011;4860;50.900;4.720;2023-04-06T04:44:43;0.40;;;0.40;;
9643;SDS011;4860;50.900;4.720;2023-04-06T04:47:09;0.40;;;0.40;;
9643;SDS011;4860;50.900;4.720;2023-04-06T04:49:35;0.40;;;0.40;;
9643;SDS011;4860;50.900;4.720;2023-04-06T04:52:01;0.40;;;0.40;;
9643;SDS011;4860;50.900;4.720;2023-04-06T04:54:28;0.40;;;0.40;;
9643;SDS011;4860;50.900;4.720;2023-04-06T04:56:55;0.40;;;0.40;;
9643;SDS011;4860;50.900;4.720;2023-04-06T04:59:21;0.40;;;0.40;;
9643;SDS011;4860;50.900;4.720;2023-04-06T05:01:47;0.50;;;0.50;;
9643;SDS011;4860;50.900;4.720;2023-04-06T05:04:13;0.50;;;0.50;;
9643;SDS011;4860;50.900;4.720;2023-04-06T05:06:40;0.50;;;0.50;;
9643;SDS011;4860;50.900;4.720;2023-04-06T05:09:06;0.40;;;0.40;;
9643;SDS011;4860;50.900;4.720;2023-04-06T05:11:32;0.30;;;0.30;;
9643;SDS011;4860;50.900;4.720;2023-04-06T05:13:58;0.40;;;0.40;;
9643;SDS011;4860;50.900;4.720;2023-04-06T05:16:25;0.40;;;0.40;;
9643;SDS011;4860;50.900;4.720;2023-04-06T05:18:51;0.40;;;0.40;;
9643;SDS011;4860;50.900;4.720;2023-04-06T05:21:18;0.40;;;0.40;;
9643;SDS011;4860;50.900;4.720;2023-04-06T05:23:44;0.40;;;0.40;;
9643;SDS011;4860;50.900;4.720;2023-04-06T05:26:10;0.40;;;0.40;;
9643;SDS011;4860;50.900;4.720;2023-04-06T05:28:37;0.40;;;0.40;;
9643;SDS011;4860;50.900;4.720;2023-04-06T05:31:03;0.40;;;0.40;;
9643;SDS011;4860;50.900;4.720;2023-04-06T05:33:29;0.40;;;0.40;;
9643;SDS011;4860;50.900;4.720;2023-04-06T05:35:56;0.40;;;0.40;;
9643;SDS011;4860;50.900;4.720;2023-04-06T05:38:22;0.40;;;0.40;;
9643;SDS011;4860;50.900;4.720;2023-04-06T05:40:49;0.40;;;0.40;;
9643;SDS011;4860;50.900;4.720;2023-04-06T05:43:15;0.40;;;0.40;;
9643;SDS011;4860;50.900;4.720;2023-04-06T05:45:43;0.40;;;0.40;;
9643;SDS011;4860;50.900;4.720;2023-04-06T05:48:10;0.40;;;0.40;;
9643;SDS011;4860;50.900;4.720;2023-04-06T05:50:36;0.40;;;0.40;;
9643;SDS011;4860;50.900;4.720;2023-04-06T05:53:03;0.40;;;0.40;;
9643;SDS011;4860;50.900;4.720;2023-04-06T05:55:29;0.40;;;0.40;;
9643;SDS011;4860;50.900;4.720;2023-04-06T05:57:55;0.30;;;0.30;;
9643;SDS011;4860;50.900;4.720;2023-04-06T06:00:21;0.40;;;0.40;;
9643;SDS011;4860;50.900;4.720;2023-04-06T06:02:48;0.30;;;0.30;;
9643;SDS011;4860;50.900;4.720;2023-04-06T06:05:14;0.30;;;0.30;;
9643;SDS011;4860;50.900;4.720;2023-04-06T06:07:40;0.40;;;0.40;;
9643;SDS011;4860;50.900;4.720;2023-04-06T06:10:06;0.30;;;0.30;;
9643;SDS011;4860;50.900;4.720;2023-04-06T06:12:33;0.33;;;0.33;;
9643;SDS011;4860;50.900;4.720;2023-04-06T06:14:59;0.30;;;0.30;;
9643;SDS011;4860;50.900;4.720;2023-04-06T06:17:25;0.30;;;0.30;;
9643;SDS011;4860;50.900;4.720;2023-04-06T06:19:51;0.30;;;0.30;;
9643;SDS011;4860;50.900;4.720;2023-04-06T06:22:18;0.30;;;0.30;;
9643;SDS011;4860;50.900;4.720;2023-04-06T06:24:44;0.40;;;0.40;;
9643;SDS011;4860;50.900;4.720;2023-04-06T06:27:10;0.40;;;0.40;;
9643;SDS011;4860;50.900;4.720;2023-04-06T06:29:37;0.40;;;0.40;;
9643;SDS011;4860;50.900;4.720;2023-04-06T06:32:03;0.30;;;0.30;;
9643;SDS011;4860;50.900;4.720;2023-04-06T06:34:29;0.30;;;0.30;;
9643;SDS011;4860;50.900;4.720;2023-04-06T06:36:55;0.30;;;0.30;;
9643;SDS011;4860;50.900;4.720;2023-04-06T06:39:21;0.30;;;0.30;;
9643;SDS011;4860;50.900;4.720;2023-04-06T06:41:48;0.30;;;0.30;;
9643;SDS011;4860;50.900;4.720;2023-04-06T06:44:14;0.30;;;0.30;;
9643;SDS011;4860;50.900;4.720;2023-04-06T06:46:41;0.30;;;0.30;;
9643;SDS011;4860;50.900;4.720;2023-04-06T06:49:08;0.38;;;0.38;;
9643;SDS011;4860;50.900;4.720;2023-04-06T06:51:37;0.32;;;0.32;;
9643;SDS011;4860;50.900;4.720;2023-04-06T06:54:03;0.30;;;0.30;;
9643;SDS011;4860;50.900;4.720;2023-04-06T06:56:29;0.30;;;0.30;;
9643;SDS011;4860;50.900;4.720;2023-04-06T06:58:56;0.32;;;0.32;;
9643;SDS011;4860;50.900;4.720;2023-04-06T07:01:22;0.30;;;0.30;;
9643;SDS011;4860;50.900;4.720;2023-04-06T07:03:48;0.30;;;0.30;;
9643;SDS011;4860;50.900;4.720;2023-04-06T07:06:14;0.40;;;0.40;;
9643;SDS011;4860;50.900;4.720;2023-04-06T07:08:41;0.30;;;0.30;;
9643;SDS011;4860;50.900;4.720;2023-04-06T07:11:07;0.30;;;0.30;;
9643;SDS011;4860;50.900;4.720;2023-04-06T07:13:33;0.30;;;0.30;;
9643;SDS011;4860;50.900;4.720;2023-04-06T07:15:59;0.30;;;0.30;;
9643;SDS011;4860;50.900;4.720;2023-04-06T07:18:25;0.30;;;0.30;;
9643;SDS011;4860;50.900;4.720;2023-04-06T07:20:52;0.30;;;0.30;;
9643;SDS011;4860;50.900;4.720;2023-04-06T07:23:18;0.30;;;0.30;;
9643;SDS011;4860;50.900;4.720;2023-04-06T07:25:44;0.30;;;0.30;;
9643;SDS011;4860;50.900;4.720;2023-04-06T07:28:11;0.30;;;0.30;;
9643;SDS011;4860;50.900;4.720;2023-04-06T07:30:37;0.30;;;0.30;;
9643;SDS011;4860;50.900;4.720;2023-04-06T07:33:04;0.30;;;0.30;;
9643;SDS011;4860;50.900;4.720;2023-04-06T07:35:30;0.40;;;0.40;;
9643;SDS011;4860;50.900;4.720;2023-04-06T07:37:56;0.30;;;0.30;;
9643;SDS011;4860;50.900;4.720;2023-04-06T07:40:23;0.30;;;0.30;;
9643;SDS011;4860;50.900;4.720;2023-04-06T07:42:51;0.40;;;0.40;;
9643;SDS011;4860;50.900;4.720;2023-04-06T07:45:17;0.30;;;0.30;;
9643;SDS011;4860;50.900;4.720;2023-04-06T07:47:43;0.30;;;0.30;;
9643;SDS011;4860;50.900;4.720;2023-04-06T07:50:10;0.30;;;0.30;;
9643;SDS011;4860;50.900;4.720;2023-04-06T07:52:37;0.40;;;0.40;;
9643;SDS011;4860;50.900;4.720;2023-04-06T07:55:03;0.30;;;0.30;;
9643;SDS011;4860;50.900;4.720;2023-04-06T07:57:29;0.28;;;0.28;;
9643;SDS011;4860;50.900;4.720;2023-04-06T07:59:55;0.30;;;0.30;;
9643;SDS011;4860;50.900;4.720;2023-04-06T08:02:22;0.30;;;0.30;;
9643;SDS011;4860;50.900;4.720;2023-04-06T08:04:48;0.30;;;0.30;;
9643;SDS011;4860;50.900;4.720;2023-04-06T08:07:14;0.30;;;0.30;;
9643;SDS011;4860;50.900;4.720;2023-04-06T08:09:40;0.30;;;0.30;;
9643;SDS011;4860;50.900;4.720;2023-04-06T08:12:06;0.30;;;0.30;;
9643;SDS011;4860;50.900;4.720;2023-04-06T08:14:33;0.30;;;0.30;;
9643;SDS011;4860;50.900;4.720;2023-04-06T08:16:59;0.30;;;0.30;;
9643;SDS011;4860;50.900;4.720;2023-04-06T08:19:26;0.30;;;0.30;;
9643;SDS011;4860;50.900;4.720;2023-04-06T08:21:52;0.30;;;0.30;;
9643;SDS011;4860;50.900;4.720;2023-04-06T08:24:18;0.30;;;0.30;;
9643;SDS011;4860;50.900;4.720;2023-04-06T08:26:44;0.30;;;0.30;;
9643;SDS011;4860;50.900;4.720;2023-04-06T08:29:11;0.30;;;0.30;;
9643;SDS011;4860;50.900;4.720;2023-04-06T08:31:43;0.30;;;0.30;;
9643;SDS011;4860;50.900;4.720;2023-04-06T08:34:10;0.30;;;0.30;;
9643;SDS011;4860;50.900;4.720;2023-04-06T08:36:36;0.20;;;0.20;;
9643;SDS011;4860;50.900;4.720;2023-04-06T08:39:02;0.20;;;0.20;;
9643;SDS011;4860;50.900;4.720;2023-04-06T08:41:28;0.30;;;0.30;;
9643;SDS011;4860;50.900;4.720;2023-04-06T08:43:58;0.30;;;0.30;;
9643;SDS011;4860;50.900;4.720;2023-04-06T08:46:25;0.30;;;0.30;;
9643;SDS011;4860;50.900;4.720;2023-04-06T08:48:55;0.30;;;0.30;;
9643;SDS011;4860;50.900;4.720;2023-04-06T08:51:22;0.30;;;0.30;;
9643;SDS011;4860;50.900;4.720;2023-04-06T08:53:50;0.30;;;0.30;;
9643;SDS011;4860;50.900;4.720;2023-04-06T08:56:16;0.30;;;0.30;;
9643;SDS011;4860;50.900;4.720;2023-04-06T08:58:42;0.30;;;0.30;;
9643;SDS011;4860;50.900;4.720;2023-04-06T09:01:10;0.30;;;0.30;;
9643;SDS011;4860;50.900;4.720;2023-04-06T09:03:38;0.30;;;0.30;;
9643;SDS011;4860;50.900;4.720;2023-04-06T09:06:08;0.30;;;0.30;;
9643;SDS011;4860;50.900;4.720;2023-04-06T09:08:34;0.30;;;0.30;;
9643;SDS011;4860;50.900;4.720;2023-04-06T09:11:01;0.30;;;0.30;;
9643;SDS011;4860;50.900;4.720;2023-04-06T09:13:28;0.30;;;0.30;;
9643;SDS011;4860;50.900;4.720;2023-04-06T09:18:30;0.30;;;0.30;;
9643;SDS011;4860;50.900;4.720;2023-04-06T09:21:03;0.30;;;0.30;;
9643;SDS011;4860;50.900;4.720;2023-04-06T09:23:30;0.30;;;0.30;;
9643;SDS011;4860;50.900;4.720;2023-04-06T09:26:30;0.30;;;0.30;;
9643;SDS011;4860;50.900;4.720;2023-04-06T09:28:50;0.25;;;0.25;;
9643;SDS011;4860;50.900;4.720;2023-04-06T09:31:17;0.30;;;0.30;;
9643;SDS011;4860;50.900;4.720;2023-04-06T09:33:47;0.25;;;0.25;;
9643;SDS011;4860;50.900;4.720;2023-04-06T09:36:13;0.30;;;0.30;;
9643;SDS011;4860;50.900;4.720;2023-04-06T09:38:54;0.20;;;0.20;;
9643;SDS011;4860;50.900;4.720;2023-04-06T09:41:27;0.20;;;0.20;;
9643;SDS011;4860;50.900;4.720;2023-04-06T09:46:31;0.30;;;0.30;;
9643;SDS011;4860;50.900;4.720;2023-04-06T09:48:58;0.30;;;0.30;;
9643;SDS011;4860;50.900;4.720;2023-04-06T09:51:25;0.22;;;0.22;;
9643;SDS011;4860;50.900;4.720;2023-04-06T09:53:52;0.20;;;0.20;;
9643;SDS011;4860;50.900;4.720;2023-04-06T09:56:20;0.30;;;0.30;;
9643;SDS011;4860;50.900;4.720;2023-04-06T09:58:52;0.20;;;0.20;;
9643;SDS011;4860;50.900;4.720;2023-04-06T10:01:19;0.30;;;0.30;;
9643;SDS011;4860;50.900;4.720;2023-04-06T10:06:15;0.28;;;0.28;;
9643;SDS011;4860;50.900;4.720;2023-04-06T10:08:45;0.20;;;0.20;;
9643;SDS011;4860;50.900;4.720;2023-04-06T10:11:12;0.30;;;0.30;;
9643;SDS011;4860;50.900;4.720;2023-04-06T10:13:38;0.22;;;0.22;;
9643;SDS011;4860;50.900;4.720;2023-04-06T10:16:04;0.30;;;0.30;;
9643;SDS011;4860;50.900;4.720;2023-04-06T10:18:32;0.30;;;0.30;;
9643;SDS011;4860;50.900;4.720;2023-04-06T10:21:19;0.30;;;0.30;;
9643;SDS011;4860;50.900;4.720;2023-04-06T10:23:51;0.30;;;0.30;;
9643;SDS011;4860;50.900;4.720;2023-04-06T10:26:21;0.30;;;0.30;;
9643;SDS011;4860;50.900;4.720;2023-04-06T10:28:48;0.30;;;0.30;;
9643;SDS011;4860;50.900;4.720;2023-04-06T10:31:15;0.28;;;0.28;;
9643;SDS011;4860;50.900;4.720;2023-04-06T10:33:53;0.30;;;0.30;;
9643;SDS011;4860;50.900;4.720;2023-04-06T10:36:24;0.30;;;0.30;;
9643;SDS011;4860;50.900;4.720;2023-04-06T10:38:58;0.28;;;0.28;;
9643;SDS011;4860;50.900;4.720;2023-04-06T10:41:46;0.30;;;0.30;;
9643;SDS011;4860;50.900;4.720;2023-04-06T10:44:23;0.30;;;0.30;;
9643;SDS011;4860;50.900;4.720;2023-04-06T10:46:53;0.30;;;0.30;;
9643;SDS011;4860;50.900;4.720;2023-04-06T10:49:19;0.30;;;0.30;;
9643;SDS011;4860;50.900;4.720;2023-04-06T10:51:50;0.30;;;0.30;;
9643;SDS011;4860;50.900;4.720;2023-04-06T10:54:16;0.30;;;0.30;;
9643;SDS011;4860;50.900;4.720;2023-04-06T10:56:43;0.30;;;0.30;;
9643;SDS011;4860;50.900;4.720;2023-04-06T10:59:09;0.30;;;0.30;;
9643;SDS011;4860;50.900;4.720;2023-04-06T11:01:35;0.30;;;0.30;;
9643;SDS011;4860;50.900;4.720;2023-04-06T11:04:02;0.30;;;0.30;;
9643;SDS011;4860;50.900;4.720;2023-04-06T11:06:28;0.30;;;0.30;;
9643;SDS011;4860;50.900;4.720;2023-04-06T11:08:56;0.30;;;0.30;;
9643;SDS011;4860;50.900;4.720;2023-04-06T11:11:23;0.20;;;0.20;;
9643;SDS011;4860;50.900;4.720;2023-04-06T11:13:52;0.30;;;0.30;;
9643;SDS011;4860;50.900;4.720;2023-04-06T11:18:55;0.30;;;0.30;;
9643;SDS011;4860;50.900;4.720;2023-04-06T11:21:34;0.20;;;0.20;;
9643;SDS011;4860;50.900;4.720;2023-04-06T11:24:11;0.25;;;0.25;;
9643;SDS011;4860;50.900;4.720;2023-04-06T11:29:26;0.30;;;0.30;;
9643;SDS011;4860;50.900;4.720;2023-04-06T11:31:53;0.30;;;0.30;;
9643;SDS011;4860;50.900;4.720;2023-04-06T11:34:23;0.30;;;0.30;;
9643;SDS011;4860;50.900;4.720;2023-04-06T11:37:09;0.30;;;0.30;;
9643;SDS011;4860;50.900;4.720;2023-04-06T11:39:54;0.20;;;0.20;;
9643;SDS011;4860;50.900;4.720;2023-04-06T11:42:22;0.30;;;0.30;;
9643;SDS011;4860;50.900;4.720;2023-04-06T11:44:50;0.22;;;0.22;;
9643;SDS011;4860;50.900;4.720;2023-04-06T11:47:18;0.30;;;0.30;;
9643;SDS011;4860;50.900;4.720;2023-04-06T11:49:44;0.30;;;0.30;;
9643;SDS011;4860;50.900;4.720;2023-04-06T11:52:17;0.30;;;0.30;;
9643;SDS011;4860;50.900;4.720;2023-04-06T11:54:44;0.30;;;0.30;;
9643;SDS011;4860;50.900;4.720;2023-04-06T11:57:10;0.30;;;0.30;;
9643;SDS011;4860;50.900;4.720;2023-04-06T11:59:37;0.30;;;0.30;;
9643;SDS011;4860;50.900;4.720;2023-04-06T12:02:03;0.28;;;0.28;;
9643;SDS011;4860;50.900;4.720;2023-04-06T12:04:30;0.20;;;0.20;;
9643;SDS011;4860;50.900;4.720;2023-04-06T12:06:57;0.30;;;0.30;;
9643;SDS011;4860;50.900;4.720;2023-04-06T12:09:23;0.30;;;0.30;;
9643;SDS011;4860;50.900;4.720;2023-04-06T12:11:50;0.28;;;0.28;;
9643;SDS011;4860;50.900;4.720;2023-04-06T12:14:16;0.20;;;0.20;;
9643;SDS011;4860;50.900;4.720;2023-04-06T12:16:42;0.30;;;0.30;;
9643;SDS011;4860;50.900;4.720;2023-04-06T12:19:09;0.22;;;0.22;;
9643;SDS011;4860;50.900;4.720;2023-04-06T12:21:35;0.20;;;0.20;;
9643;SDS011;4860;50.900;4.720;2023-04-06T12:24:02;0.20;;;0.20;;
9643;SDS011;4860;50.900;4.720;2023-04-06T12:26:29;0.20;;;0.20;;
9643;SDS011;4860;50.900;4.720;2023-04-06T12:28:55;0.30;;;0.30;;
9643;SDS011;4860;50.900;4.720;2023-04-06T12:31:22;0.22;;;0.22;;
9643;SDS011;4860;50.900;4.720;2023-04-06T12:33:50;0.30;;;0.30;;
9643;SDS011;4860;50.900;4.720;2023-04-06T12:36:20;0.20;;;0.20;;
9643;SDS011;4860;50.900;4.720;2023-04-06T12:38:49;0.30;;;0.30;;
9643;SDS011;4860;50.900;4.720;2023-04-06T12:41:17;0.20;;;0.20;;
9643;SDS011;4860;50.900;4.720;2023-04-06T12:43:43;0.20;;;0.20;;
9643;SDS011;4860;50.900;4.720;2023-04-06T12:46:10;0.20;;;0.20;;
9643;SDS011;4860;50.900;4.720;2023-04-06T12:48:37;0.20;;;0.20;;
9643;SDS011;4860;50.900;4.720;2023-04-06T12:51:06;0.22;;;0.22;;
9643;SDS011;4860;50.900;4.720;2023-04-06T12:53:33;0.22;;;0.22;;
9643;SDS011;4860;50.900;4.720;2023-04-06T12:56:00;0.30;;;0.30;;
9643;SDS011;4860;50.900;4.720;2023-04-06T12:58:26;0.30;;;0.30;;
9643;SDS011;4860;50.900;4.720;2023-04-06T13:00:53;0.20;;;0.20;;
9643;SDS011;4860;50.900;4.720;2023-04-06T13:03:21;0.30;;;0.30;;
9643;SDS011;4860;50.900;4.720;2023-04-06T13:05:48;0.25;;;0.25;;
9643;SDS011;4860;50.900;4.720;2023-04-06T13:08:15;0.30;;;0.30;;
9643;SDS011;4860;50.900;4.720;2023-04-06T13:10:49;0.20;;;0.20;;
9643;SDS011;4860;50.900;4.720;2023-04-06T13:13:16;0.25;;;0.25;;
9643;SDS011;4860;50.900;4.720;2023-04-06T13:15:42;0.20;;;0.20;;
9643;SDS011;4860;50.900;4.720;2023-04-06T13:18:08;0.20;;;0.20;;
9643;SDS011;4860;50.900;4.720;2023-04-06T13:20:35;0.20;;;0.20;;
9643;SDS011;4860;50.900;4.720;2023-04-06T13:23:01;0.30;;;0.30;;
9643;SDS011;4860;50.900;4.720;2023-04-06T13:25:28;0.20;;;0.20;;
9643;SDS011;4860;50.900;4.720;2023-04-06T13:27:54;0.20;;;0.20;;
9643;SDS011;4860;50.900;4.720;2023-04-06T13:30:20;0.20;;;0.20;;
9643;SDS011;4860;50.900;4.720;2023-04-06T13:32:47;0.20;;;0.20;;
9643;SDS011;4860;50.900;4.720;2023-04-06T13:35:16;0.20;;;0.20;;
9643;SDS011;4860;50.900;4.720;2023-04-06T13:37:43;0.30;;;0.30;;
9643;SDS011;4860;50.900;4.720;2023-04-06T13:40:10;0.30;;;0.30;;
9643;SDS011;4860;50.900;4.720;2023-04-06T13:42:36;0.30;;;0.30;;
9643;SDS011;4860;50.900;4.720;2023-04-06T13:45:05;0.30;;;0.30;;
9643;SDS011;4860;50.900;4.720;2023-04-06T13:47:31;0.30;;;0.30;;
9643;SDS011;4860;50.900;4.720;2023-04-06T13:49:57;0.30;;;0.30;;
9643;SDS011;4860;50.900;4.720;2023-04-06T13:52:24;0.30;;;0.30;;
9643;SDS011;4860;50.900;4.720;2023-04-06T13:54:50;0.30;;;0.30;;
9643;SDS011;4860;50.900;4.720;2023-04-06T13:57:16;0.30;;;0.30;;
9643;SDS011;4860;50.900;4.720;2023-04-06T13:59:42;0.30;;;0.30;;
9643;SDS011;4860;50.900;4.720;2023-04-06T14:02:08;0.30;;;0.30;;
9643;SDS011;4860;50.900;4.720;2023-04-06T14:04:35;0.30;;;0.30;;
9643;SDS011;4860;50.900;4.720;2023-04-06T14:07:01;0.30;;;0.30;;
9643;SDS011;4860;50.900;4.720;2023-04-06T14:09:28;0.20;;;0.20;;
9643;SDS011;4860;50.900;4.720;2023-04-06T14:11:55;0.20;;;0.20;;
9643;SDS011;4860;50.900;4.720;2023-04-06T14:14:24;0.30;;;0.30;;
9643;SDS011;4860;50.900;4.720;2023-04-06T14:16:51;0.30;;;0.30;;
9643;SDS011;4860;50.900;4.720;2023-04-06T14:19:17;0.20;;;0.20;;
9643;SDS011;4860;50.900;4.720;2023-04-06T14:21:44;0.20;;;0.20;;
9643;SDS011;4860;50.900;4.720;2023-04-06T14:24:10;0.30;;;0.30;;
9643;SDS011;4860;50.900;4.720;2023-04-06T14:26:37;0.30;;;0.30;;
9643;SDS011;4860;50.900;4.720;2023-04-06T14:29:04;0.30;;;0.30;;
9643;SDS011;4860;50.900;4.720;2023-04-06T14:31:31;0.30;;;0.30;;
9643;SDS011;4860;50.900;4.720;2023-04-06T14:33:57;0.30;;;0.30;;
9643;SDS011;4860;50.900;4.720;2023-04-06T14:36:24;0.30;;;0.30;;
9643;SDS011;4860;50.900;4.720;2023-04-06T14:38:52;0.30;;;0.30;;
9643;SDS011;4860;50.900;4.720;2023-04-06T14:41:19;0.20;;;0.20;;
9643;SDS011;4860;50.900;4.720;2023-04-06T14:43:45;0.30;;;0.30;;
9643;SDS011;4860;50.900;4.720;2023-04-06T14:46:12;0.30;;;0.30;;
9643;SDS011;4860;50.900;4.720;2023-04-06T14:48:38;0.20;;;0.20;;
9643;SDS011;4860;50.900;4.720;2023-04-06T14:51:05;0.20;;;0.20;;
9643;SDS011;4860;50.900;4.720;2023-04-06T14:53:31;0.30;;;0.30;;
9643;SDS011;4860;50.900;4.720;2023-04-06T14:55:58;0.30;;;0.30;;
9643;SDS011;4860;50.900;4.720;2023-04-06T14:58:25;0.30;;;0.30;;
9643;SDS011;4860;50.900;4.720;2023-04-06T15:00:58;0.30;;;0.30;;
9643;SDS011;4860;50.900;4.720;2023-04-06T15:03:28;0.30;;;0.30;;
9643;SDS011;4860;50.900;4.720;2023-04-06T15:05:57;0.30;;;0.30;;
9643;SDS011;4860;50.900;4.720;2023-04-06T15:08:23;0.20;;;0.20;;
9643;SDS011;4860;50.900;4.720;2023-04-06T15:10:50;0.20;;;0.20;;
9643;SDS011;4860;50.900;4.720;2023-04-06T15:13:17;0.20;;;0.20;;
9643;SDS011;4860;50.900;4.720;2023-04-06T15:15:44;0.20;;;0.20;;
9643;SDS011;4860;50.900;4.720;2023-04-06T15:18:10;0.22;;;0.22;;
9643;SDS011;4860;50.900;4.720;2023-04-06T15:20:37;0.20;;;0.20;;
9643;SDS011;4860;50.900;4.720;2023-04-06T15:23:03;0.20;;;0.20;;
9643;SDS011;4860;50.900;4.720;2023-04-06T15:25:30;0.20;;;0.20;;
9643;SDS011;4860;50.900;4.720;2023-04-06T15:27:56;0.20;;;0.20;;